sensor_id;sensor_type;location;lat;lon;timestamp;pressure;altitude;pressure_sealevel;temperature;humidity
36598;BME280;22607;49.550;11.940;2022-07-17T00:02:18;97760.84;;;15.26;64.76
36598;BME280;22607;49.550;11.940;2022-07-17T00:05:06;97753.75;;;15.03;65.09
36598;BME280;22607;49.550;11.940;2022-07-17T00:07:53;97749.22;;;14.88;68.02
36598;BME280;22607;49.550;11.940;2022-07-17T00:10:41;97758.34;;;14.86;67.15
36598;BME280;22607;49.550;11.940;2022-07-17T00:13:28;97762.09;;;14.91;65.84
36598;BME280;22607;49.550;11.940;2022-07-17T00:16:16;97763.03;;;14.99;64.41
36598;BME280;22607;49.550;11.940;2022-07-17T00:19:03;97757.75;;;14.99;65.19
36598;BME280;22607;49.550;11.940;2022-07-17T00:21:50;97758.56;;;14.99;67.78
36598;BME280;22607;49.550;11.940;2022-07-17T00:24:37;97763.22;;;14.97;68.22
36598;BME280;22607;49.550;11.940;2022-07-17T00:27:24;97758.97;;;14.88;69.90
36598;BME280;22607;49.550;11.940;2022-07-17T00:30:11;97761.88;;;14.78;67.06
36598;BME280;22607;49.550;11.940;2022-07-17T00:32:59;97766.41;;;14.61;67.23
36598;BME280;22607;49.550;11.940;2022-07-17T00:35:46;97766.22;;;14.62;66.98
36598;BME280;22607;49.550;11.940;2022-07-17T00:38:33;97770.25;;;14.50;67.29
36598;BME280;22607;49.550;11.940;2022-07-17T00:41:20;97781.72;;;14.42;69.70
36598;BME280;22607;49.550;11.940;2022-07-17T00:44:09;97779.69;;;14.52;72.54
36598;BME280;22607;49.550;11.940;2022-07-17T00:46:58;97779.63;;;14.29;77.34
36598;BME280;22607;49.550;11.940;2022-07-17T00:49:46;97780.22;;;14.08;78.04
36598;BME280;22607;49.550;11.940;2022-07-17T00:52:34;97770.34;;;14.01;78.93
36598;BME280;22607;49.550;11.940;2022-07-17T00:55:22;97770.38;;;13.93;79.43
36598;BME280;22607;49.550;11.940;2022-07-17T00:58:29;97782.41;;;13.96;76.95
36598;BME280;22607;49.550;11.940;2022-07-17T01:01:17;97782.41;;;14.04;75.55
36598;BME280;22607;49.550;11.940;2022-07-17T01:04:04;97785.66;;;14.14;75.48
36598;BME280;22607;49.550;11.940;2022-07-17T01:06:51;97785.34;;;14.09;77.61
36598;BME280;22607;49.550;11.940;2022-07-17T01:09:39;97779.44;;;13.99;76.36
36598;BME280;22607;49.550;11.940;2022-07-17T01:12:27;97784.50;;;14.09;73.34
36598;BME280;22607;49.550;11.940;2022-07-17T01:15:15;97779.44;;;13.99;73.32
36598;BME280;22607;49.550;11.940;2022-07-17T01:18:07;97790.19;;;13.89;75.09
36598;BME280;22607;49.550;11.940;2022-07-17T01:20:54;97781.41;;;13.97;73.25
36598;BME280;22607;49.550;11.940;2022-07-17T01:23:41;97786.34;;;14.08;72.18
36598;BME280;22607;49.550;11.940;2022-07-17T01:26:28;97798.25;;;14.04;75.49
36598;BME280;22607;49.550;11.940;2022-07-17T01:29:16;97793.31;;;13.93;76.33
36598;BME280;22607;49.550;11.940;2022-07-17T01:32:04;97791.19;;;13.88;75.20
36598;BME280;22607;49.550;11.940;2022-07-17T01:34:51;97797.81;;;13.84;77.02
36598;BME280;22607;49.550;11.940;2022-07-17T01:37:39;97797.03;;;13.67;82.45
36598;BME280;22607;49.550;11.940;2022-07-17T01:40:26;97804.44;;;13.63;82.18
36598;BME280;22607;49.550;11.940;2022-07-17T01:43:13;97804.09;;;13.74;83.10
36598;BME280;22607;49.550;11.940;2022-07-17T01:46:01;97804.44;;;13.46;85.09
36598;BME280;22607;49.550;11.940;2022-07-17T01:48:48;97797.84;;;13.42;87.13
36598;BME280;22607;49.550;11.940;2022-07-17T01:51:35;97798.38;;;13.29;88.36
36598;BME280;22607;49.550;11.940;2022-07-17T01:54:23;97806.91;;;13.23;89.52
36598;BME280;22607;49.550;11.940;2022-07-17T01:57:11;97800.66;;;13.32;89.89
36598;BME280;22607;49.550;11.940;2022-07-17T01:59:59;97797.84;;;13.00;93.34
36598;BME280;22607;49.550;11.940;2022-07-17T02:02:46;97804.44;;;13.21;86.21
36598;BME280;22607;49.550;11.940;2022-07-17T02:05:33;97809.22;;;13.18;89.90
36598;BME280;22607;49.550;11.940;2022-07-17T02:08:21;97805.28;;;13.22;87.50
36598;BME280;22607;49.550;11.940;2022-07-17T02:11:08;97803.28;;;12.99;88.70
36598;BME280;22607;49.550;11.940;2022-07-17T02:13:55;97806.75;;;12.99;87.99
36598;BME280;22607;49.550;11.940;2022-07-17T02:16:42;97800.66;;;13.16;85.61
36598;BME280;22607;49.550;11.940;2022-07-17T02:19:29;97800.66;;;13.07;89.83
36598;BME280;22607;49.550;11.940;2022-07-17T02:22:16;97804.28;;;13.06;89.92
36598;BME280;22607;49.550;11.940;2022-07-17T02:25:04;97812.84;;;13.08;88.20
36598;BME280;22607;49.550;11.940;2022-07-17T02:27:52;97807.75;;;12.90;88.22
36598;BME280;22607;49.550;11.940;2022-07-17T02:30:39;97803.97;;;13.01;88.00
36598;BME280;22607;49.550;11.940;2022-07-17T02:33:26;97803.63;;;12.88;89.55
36598;BME280;22607;49.550;11.940;2022-07-17T02:36:13;97801.94;;;12.70;90.89
36598;BME280;22607;49.550;11.940;2022-07-17T02:39:01;97808.19;;;12.60;91.09
36598;BME280;22607;49.550;11.940;2022-07-17T02:41:48;97806.56;;;12.68;88.82
36598;BME280;22607;49.550;11.940;2022-07-17T02:44:36;97800.94;;;12.71;88.04
36598;BME280;22607;49.550;11.940;2022-07-17T02:47:26;97807.69;;;12.65;93.70
36598;BME280;22607;49.550;11.940;2022-07-17T02:50:14;97788.91;;;12.60;94.24
36598;BME280;22607;49.550;11.940;2022-07-17T02:53:01;97804.16;;;12.31;98.26
36598;BME280;22607;49.550;11.940;2022-07-17T02:55:48;97802.31;;;12.32;96.38
36598;BME280;22607;49.550;11.940;2022-07-17T02:58:35;97801.06;;;12.44;93.81
36598;BME280;22607;49.550;11.940;2022-07-17T03:01:22;97793.97;;;12.37;97.48
36598;BME280;22607;49.550;11.940;2022-07-17T03:04:09;97795.06;;;12.26;98.48
36598;BME280;22607;49.550;11.940;2022-07-17T03:06:57;97793.34;;;12.08;100.00
36598;BME280;22607;49.550;11.940;2022-07-17T03:09:44;97803.28;;;12.14;100.00
36598;BME280;22607;49.550;11.940;2022-07-17T03:12:31;97803.31;;;11.96;100.00
36598;BME280;22607;49.550;11.940;2022-07-17T03:15:18;97807.78;;;12.04;99.73
36598;BME280;22607;49.550;11.940;2022-07-17T03:18:05;97798.53;;;11.91;100.00
36598;BME280;22607;49.550;11.940;2022-07-17T03:20:52;97807.38;;;11.82;100.00
36598;BME280;22607;49.550;11.940;2022-07-17T03:23:41;97801.91;;;11.75;100.00
36598;BME280;22607;49.550;11.940;2022-07-17T03:26:28;97807.97;;;11.76;100.00
36598;BME280;22607;49.550;11.940;2022-07-17T03:29:16;97809.88;;;11.39;100.00
36598;BME280;22607;49.550;11.940;2022-07-17T03:32:05;97809.63;;;11.50;100.00
36598;BME280;22607;49.550;11.940;2022-07-17T03:34:52;97811.50;;;11.58;100.00
36598;BME280;22607;49.550;11.940;2022-07-17T03:37:39;97813.84;;;11.43;100.00
36598;BME280;22607;49.550;11.940;2022-07-17T03:40:27;97812.38;;;11.67;100.00
36598;BME280;22607;49.550;11.940;2022-07-17T03:43:14;97815.41;;;11.54;100.00
36598;BME280;22607;49.550;11.940;2022-07-17T03:46:01;97812.66;;;11.64;100.00
36598;BME280;22607;49.550;11.940;2022-07-17T03:48:48;97816.28;;;11.63;100.00
36598;BME280;22607;49.550;11.940;2022-07-17T03:51:35;97813.19;;;11.67;100.00
36598;BME280;22607;49.550;11.940;2022-07-17T03:54:22;97808.09;;;11.66;100.00
36598;BME280;22607;49.550;11.940;2022-07-17T03:57:09;97811.31;;;11.60;100.00
36598;BME280;22607;49.550;11.940;2022-07-17T03:59:56;97820.41;;;11.65;100.00
36598;BME280;22607;49.550;11.940;2022-07-17T04:02:43;97823.78;;;11.31;100.00
36598;BME280;22607;49.550;11.940;2022-07-17T04:05:30;97818.56;;;11.58;100.00
36598;BME280;22607;49.550;11.940;2022-07-17T04:08:17;97813.66;;;11.63;100.00
36598;BME280;22607;49.550;11.940;2022-07-17T04:11:05;97811.22;;;11.43;100.00
36598;BME280;22607;49.550;11.940;2022-07-17T04:13:56;97813.44;;;11.29;100.00
36598;BME280;22607;49.550;11.940;2022-07-17T04:16:43;97812.69;;;11.19;100.00
36598;BME280;22607;49.550;11.940;2022-07-17T04:19:30;97805.34;;;11.49;100.00
36598;BME280;22607;49.550;11.940;2022-07-17T04:22:17;97816.91;;;11.57;100.00
36598;BME280;22607;49.550;11.940;2022-07-17T04:25:04;97818.75;;;11.64;100.00
36598;BME280;22607;49.550;11.940;2022-07-17T04:27:51;97815.44;;;11.62;100.00
36598;BME280;22607;49.550;11.940;2022-07-17T04:30:39;97811.28;;;11.78;100.00
36598;BME280;22607;49.550;11.940;2022-07-17T04:33:26;97807.81;;;11.77;100.00
36598;BME280;22607;49.550;11.940;2022-07-17T04:36:13;97807.91;;;11.94;100.00
36598;BME280;22607;49.550;11.940;2022-07-17T04:39:00;97816.16;;;11.99;100.00
36598;BME280;22607;49.550;11.940;2022-07-17T04:41:47;97819.88;;;12.15;100.00
36598;BME280;22607;49.550;11.940;2022-07-17T04:44:34;97820.84;;;12.65;100.00
36598;BME280;22607;49.550;11.940;2022-07-17T04:47:21;97810.84;;;13.85;90.08
36598;BME280;22607;49.550;11.940;2022-07-17T04:50:09;97807.88;;;14.92;79.29
36598;BME280;22607;49.550;11.940;2022-07-17T04:52:56;97805.72;;;15.72;71.25
36598;BME280;22607;49.550;11.940;2022-07-17T04:55:43;97797.09;;;16.46;64.68
36598;BME280;22607;49.550;11.940;2022-07-17T04:58:30;97797.31;;;16.29;64.98
36598;BME280;22607;49.550;11.940;2022-07-17T05:01:17;97797.00;;;16.54;65.33
36598;BME280;22607;49.550;11.940;2022-07-17T05:04:05;97794.63;;;17.82;56.29
36598;BME280;22607;49.550;11.940;2022-07-17T05:06:52;97791.38;;;18.22;55.00
36598;BME280;22607;49.550;11.940;2022-07-17T05:09:39;97775.75;;;18.61;53.23
36598;BME280;22607;49.550;11.940;2022-07-17T05:12:26;97787.91;;;18.91;51.81
36598;BME280;22607;49.550;11.940;2022-07-17T05:15:13;97784.06;;;19.34;49.62
36598;BME280;22607;49.550;11.940;2022-07-17T05:17:59;97784.47;;;19.31;48.26
36598;BME280;22607;49.550;11.940;2022-07-17T05:20:46;97785.63;;;19.82;47.40
36598;BME280;22607;49.550;11.940;2022-07-17T05:23:33;97789.13;;;19.69;47.48
36598;BME280;22607;49.550;11.940;2022-07-17T05:26:20;97784.38;;;20.51;45.46
36598;BME280;22607;49.550;11.940;2022-07-17T05:29:08;97782.94;;;20.55;43.53
36598;BME280;22607;49.550;11.940;2022-07-17T05:31:54;97784.66;;;20.75;43.08
36598;BME280;22607;49.550;11.940;2022-07-17T05:34:42;97780.06;;;20.50;41.54
36598;BME280;22607;49.550;11.940;2022-07-17T05:37:29;97787.19;;;20.63;41.66
36598;BME280;22607;49.550;11.940;2022-07-17T05:40:16;97788.94;;;20.43;41.93
36598;BME280;22607;49.550;11.940;2022-07-17T05:43:03;97786.94;;;20.32;41.45
36598;BME280;22607;49.550;11.940;2022-07-17T05:45:53;97791.78;;;20.49;41.13
36598;BME280;22607;49.550;11.940;2022-07-17T05:48:40;97790.50;;;20.58;41.82
36598;BME280;22607;49.550;11.940;2022-07-17T05:51:27;97799.94;;;20.61;42.16
36598;BME280;22607;49.550;11.940;2022-07-17T05:54:14;97798.06;;;20.61;42.00
36598;BME280;22607;49.550;11.940;2022-07-17T05:57:01;97799.69;;;21.01;41.25
36598;BME280;22607;49.550;11.940;2022-07-17T05:59:56;97807.66;;;21.08;40.66
36598;BME280;22607;49.550;11.940;2022-07-17T06:02:43;97809.44;;;21.46;41.13
36598;BME280;22607;49.550;11.940;2022-07-17T06:05:30;97807.09;;;21.82;39.43
36598;BME280;22607;49.550;11.940;2022-07-17T06:08:17;97808.50;;;21.85;39.23
36598;BME280;22607;49.550;11.940;2022-07-17T06:11:04;97813.03;;;22.22;39.30
36598;BME280;22607;49.550;11.940;2022-07-17T06:13:51;97822.31;;;22.38;38.76
36598;BME280;22607;49.550;11.940;2022-07-17T06:16:38;97812.81;;;22.73;37.88
36598;BME280;22607;49.550;11.940;2022-07-17T06:19:26;97813.16;;;22.95;36.75
36598;BME280;22607;49.550;11.940;2022-07-17T06:22:13;97807.47;;;23.15;36.09
36598;BME280;22607;49.550;11.940;2022-07-17T06:25:00;97818.22;;;22.54;36.45
36598;BME280;22607;49.550;11.940;2022-07-17T06:27:47;97814.69;;;22.23;37.61
36598;BME280;22607;49.550;11.940;2022-07-17T06:30:34;97811.34;;;22.77;36.45
36598;BME280;22607;49.550;11.940;2022-07-17T06:33:21;97807.56;;;22.66;35.83
36598;BME280;22607;49.550;11.940;2022-07-17T06:36:08;97808.56;;;22.84;35.77
36598;BME280;22607;49.550;11.940;2022-07-17T06:38:55;97807.47;;;23.15;35.71
36598;BME280;22607;49.550;11.940;2022-07-17T06:41:42;97809.31;;;23.57;34.47
36598;BME280;22607;49.550;11.940;2022-07-17T06:44:29;97806.69;;;23.27;34.42
36598;BME280;22607;49.550;11.940;2022-07-17T06:47:16;97816.50;;;24.05;33.62
36598;BME280;22607;49.550;11.940;2022-07-17T06:50:03;97818.94;;;24.06;33.58
36598;BME280;22607;49.550;11.940;2022-07-17T06:52:50;97817.44;;;24.10;32.49
36598;BME280;22607;49.550;11.940;2022-07-17T06:55:37;97819.78;;;23.95;32.11
36598;BME280;22607;49.550;11.940;2022-07-17T06:58:24;97819.19;;;24.17;32.82
36598;BME280;22607;49.550;11.940;2022-07-17T07:01:11;97829.44;;;24.20;32.38
36598;BME280;22607;49.550;11.940;2022-07-17T07:03:59;97818.78;;;24.37;31.54
36598;BME280;22607;49.550;11.940;2022-07-17T07:06:47;97817.22;;;24.53;31.21
36598;BME280;22607;49.550;11.940;2022-07-17T07:09:34;97821.22;;;24.80;30.62
36598;BME280;22607;49.550;11.940;2022-07-17T07:12:21;97821.50;;;24.66;31.23
36598;BME280;22607;49.550;11.940;2022-07-17T07:15:08;97819.13;;;24.70;31.09
36598;BME280;22607;49.550;11.940;2022-07-17T07:17:59;97825.97;;;25.07;31.13
36598;BME280;22607;49.550;11.940;2022-07-17T07:20:46;97823.38;;;24.95;30.36
36598;BME280;22607;49.550;11.940;2022-07-17T07:23:33;97819.00;;;25.23;30.88
36598;BME280;22607;49.550;11.940;2022-07-17T07:26:20;97819.66;;;25.30;30.51
36598;BME280;22607;49.550;11.940;2022-07-17T07:29:08;97818.91;;;25.35;30.12
36598;BME280;22607;49.550;11.940;2022-07-17T07:32:02;97818.44;;;25.38;29.96
36598;BME280;22607;49.550;11.940;2022-07-17T07:34:49;97814.91;;;25.37;30.39
36598;BME280;22607;49.550;11.940;2022-07-17T07:37:37;97816.41;;;25.62;30.38
36598;BME280;22607;49.550;11.940;2022-07-17T07:40:24;97815.84;;;25.60;30.13
36598;BME280;22607;49.550;11.940;2022-07-17T07:43:11;97812.31;;;25.77;29.17
36598;BME280;22607;49.550;11.940;2022-07-17T07:45:58;97812.66;;;25.29;29.98
36598;BME280;22607;49.550;11.940;2022-07-17T07:48:45;97815.25;;;25.24;30.28
36598;BME280;22607;49.550;11.940;2022-07-17T07:51:32;97804.75;;;25.74;29.17
36598;BME280;22607;49.550;11.940;2022-07-17T07:54:39;97804.34;;;25.65;29.63
36598;BME280;22607;49.550;11.940;2022-07-17T07:57:26;97803.91;;;26.13;28.94
36598;BME280;22607;49.550;11.940;2022-07-17T08:00:14;97797.03;;;26.22;28.58
36598;BME280;22607;49.550;11.940;2022-07-17T08:03:02;97798.34;;;26.19;28.64
36598;BME280;22607;49.550;11.940;2022-07-17T08:05:49;97797.34;;;25.64;29.22
36598;BME280;22607;49.550;11.940;2022-07-17T08:08:36;97796.69;;;25.96;29.54
36598;BME280;22607;49.550;11.940;2022-07-17T08:11:25;97800.28;;;26.02;29.51
36598;BME280;22607;49.550;11.940;2022-07-17T08:14:13;97804.22;;;26.16;29.38
36598;BME280;22607;49.550;11.940;2022-07-17T08:17:03;97797.50;;;26.19;29.91
36598;BME280;22607;49.550;11.940;2022-07-17T08:19:50;97787.25;;;26.88;28.38
36598;BME280;22607;49.550;11.940;2022-07-17T08:22:37;97783.50;;;26.62;27.33
36598;BME280;22607;49.550;11.940;2022-07-17T08:25:44;97808.19;;;26.81;28.22
36598;BME280;22607;49.550;11.940;2022-07-17T08:28:33;97809.59;;;27.54;26.72
36598;BME280;22607;49.550;11.940;2022-07-17T08:31:20;97809.59;;;27.87;27.43
36598;BME280;22607;49.550;11.940;2022-07-17T08:34:07;97813.78;;;27.67;27.33
36598;BME280;22607;49.550;11.940;2022-07-17T08:36:54;97811.16;;;27.77;25.68
36598;BME280;22607;49.550;11.940;2022-07-17T08:39:41;97809.72;;;27.64;26.05
36598;BME280;22607;49.550;11.940;2022-07-17T08:42:33;97807.34;;;27.73;26.74
36598;BME280;22607;49.550;11.940;2022-07-17T08:45:29;97784.56;;;27.59;26.88
36598;BME280;22607;49.550;11.940;2022-07-17T08:48:19;97803.09;;;27.88;26.46
36598;BME280;22607;49.550;11.940;2022-07-17T08:51:08;97803.34;;;27.81;25.85
36598;BME280;22607;49.550;11.940;2022-07-17T08:53:56;97803.38;;;27.48;26.72
36598;BME280;22607;49.550;11.940;2022-07-17T08:56:44;97800.38;;;27.83;25.61
36598;BME280;22607;49.550;11.940;2022-07-17T08:59:31;97790.22;;;28.00;26.05
36598;BME280;22607;49.550;11.940;2022-07-17T09:02:18;97793.84;;;27.73;26.08
36598;BME280;22607;49.550;11.940;2022-07-17T09:05:12;97797.00;;;28.13;26.07
36598;BME280;22607;49.550;11.940;2022-07-17T09:08:00;97779.41;;;28.00;24.90
36598;BME280;22607;49.550;11.940;2022-07-17T09:10:49;97787.16;;;27.86;24.45
36598;BME280;22607;49.550;11.940;2022-07-17T09:13:44;97789.88;;;27.91;24.47
36598;BME280;22607;49.550;11.940;2022-07-17T09:16:34;97792.28;;;27.83;24.08
36598;BME280;22607;49.550;11.940;2022-07-17T09:19:29;97787.72;;;27.45;23.10
36598;BME280;22607;49.550;11.940;2022-07-17T09:22:21;97780.41;;;27.84;23.77
36598;BME280;22607;49.550;11.940;2022-07-17T09:25:08;97772.53;;;28.36;22.07
36598;BME280;22607;49.550;11.940;2022-07-17T09:27:56;97771.25;;;28.64;21.07
36598;BME280;22607;49.550;11.940;2022-07-17T09:30:49;97773.19;;;29.16;19.82
36598;BME280;22607;49.550;11.940;2022-07-17T09:33:37;97771.00;;;28.87;20.54
36598;BME280;22607;49.550;11.940;2022-07-17T09:36:32;97763.41;;;28.63;20.12
36598;BME280;22607;49.550;11.940;2022-07-17T09:39:19;97761.81;;;28.67;20.58
36598;BME280;22607;49.550;11.940;2022-07-17T09:42:07;97760.69;;;28.47;20.47
36598;BME280;22607;49.550;11.940;2022-07-17T09:45:15;97766.72;;;28.06;20.84
36598;BME280;22607;49.550;11.940;2022-07-17T09:48:03;97766.50;;;28.13;20.48
36598;BME280;22607;49.550;11.940;2022-07-17T09:50:51;97761.28;;;28.65;20.91
36598;BME280;22607;49.550;11.940;2022-07-17T09:53:40;97754.03;;;28.91;19.94
36598;BME280;22607;49.550;11.940;2022-07-17T09:56:30;97761.81;;;28.77;20.58
36598;BME280;22607;49.550;11.940;2022-07-17T09:59:19;97762.34;;;28.69;20.99
36598;BME280;22607;49.550;11.940;2022-07-17T10:02:06;97761.81;;;28.82;20.46
36598;BME280;22607;49.550;11.940;2022-07-17T10:04:53;97754.78;;;28.87;21.64
36598;BME280;22607;49.550;11.940;2022-07-17T10:07:45;97748.53;;;29.64;20.58
36598;BME280;22607;49.550;11.940;2022-07-17T10:10:33;97759.69;;;29.31;20.78
36598;BME280;22607;49.550;11.940;2022-07-17T10:13:20;97750.50;;;29.06;20.02
36598;BME280;22607;49.550;11.940;2022-07-17T10:16:08;97748.09;;;29.05;20.32
36598;BME280;22607;49.550;11.940;2022-07-17T10:18:57;97749.88;;;28.42;19.80
36598;BME280;22607;49.550;11.940;2022-07-17T10:24:54;97744.25;;;29.21;19.92
36598;BME280;22607;49.550;11.940;2022-07-17T10:27:47;97747.00;;;29.01;20.18
36598;BME280;22607;49.550;11.940;2022-07-17T10:30:34;97744.03;;;29.07;20.70
36598;BME280;22607;49.550;11.940;2022-07-17T10:33:21;97747.75;;;29.53;19.97
36598;BME280;22607;49.550;11.940;2022-07-17T10:36:08;97743.34;;;29.83;20.08
36598;BME280;22607;49.550;11.940;2022-07-17T10:38:56;97739.03;;;29.82;19.40
36598;BME280;22607;49.550;11.940;2022-07-17T10:41:59;97738.06;;;28.95;19.06
36598;BME280;22607;49.550;11.940;2022-07-17T10:44:46;97740.75;;;29.31;19.40
36598;BME280;22607;49.550;11.940;2022-07-17T10:50:43;97735.88;;;28.87;19.70
36598;BME280;22607;49.550;11.940;2022-07-17T10:53:33;97739.38;;;29.44;19.86
36598;BME280;22607;49.550;11.940;2022-07-17T10:56:22;97740.72;;;29.57;19.43
36598;BME280;22607;49.550;11.940;2022-07-17T10:59:10;97739.09;;;29.51;19.49
36598;BME280;22607;49.550;11.940;2022-07-17T11:01:57;97737.78;;;29.28;19.16
36598;BME280;22607;49.550;11.940;2022-07-17T11:04:44;97730.44;;;29.49;19.37
36598;BME280;22607;49.550;11.940;2022-07-17T11:07:33;97734.16;;;29.79;18.67
36598;BME280;22607;49.550;11.940;2022-07-17T11:10:22;97720.06;;;29.87;17.51
36598;BME280;22607;49.550;11.940;2022-07-17T11:13:15;97726.56;;;29.76;17.28
36598;BME280;22607;49.550;11.940;2022-07-17T11:16:02;97731.25;;;29.39;17.29
36598;BME280;22607;49.550;11.940;2022-07-17T11:18:50;97725.03;;;29.54;17.66
36598;BME280;22607;49.550;11.940;2022-07-17T11:21:47;97719.38;;;29.30;17.75
36598;BME280;22607;49.550;11.940;2022-07-17T11:24:46;97723.88;;;29.71;17.36
36598;BME280;22607;49.550;11.940;2022-07-17T11:27:34;97722.91;;;29.35;17.26
36598;BME280;22607;49.550;11.940;2022-07-17T11:30:26;97720.16;;;29.56;17.41
36598;BME280;22607;49.550;11.940;2022-07-17T11:33:16;97715.19;;;29.84;17.02
36598;BME280;22607;49.550;11.940;2022-07-17T11:36:03;97723.19;;;30.10;16.44
36598;BME280;22607;49.550;11.940;2022-07-17T11:38:52;97720.34;;;29.81;17.22
36598;BME280;22607;49.550;11.940;2022-07-17T11:41:48;97720.31;;;29.86;17.20
36598;BME280;22607;49.550;11.940;2022-07-17T11:44:39;97718.44;;;29.86;17.22
36598;BME280;22607;49.550;11.940;2022-07-17T11:47:27;97714.28;;;30.05;17.10
36598;BME280;22607;49.550;11.940;2022-07-17T11:50:14;97718.53;;;29.60;17.29
36598;BME280;22607;49.550;11.940;2022-07-17T11:53:02;97717.72;;;29.44;16.69
36598;BME280;22607;49.550;11.940;2022-07-17T11:55:50;97710.94;;;29.57;17.35
36598;BME280;22607;49.550;11.940;2022-07-17T11:58:44;97719.69;;;30.05;16.89
36598;BME280;22607;49.550;11.940;2022-07-17T12:01:44;97713.44;;;30.09;16.70
36598;BME280;22607;49.550;11.940;2022-07-17T12:04:31;97709.16;;;29.98;17.06
36598;BME280;22607;49.550;11.940;2022-07-17T12:07:20;97706.13;;;30.15;16.87
36598;BME280;22607;49.550;11.940;2022-07-17T12:10:17;97706.59;;;29.61;16.49
36598;BME280;22607;49.550;11.940;2022-07-17T12:13:06;97696.91;;;30.21;15.91
36598;BME280;22607;49.550;11.940;2022-07-17T12:15:54;97698.25;;;30.19;16.91
36598;BME280;22607;49.550;11.940;2022-07-17T12:18:42;97692.44;;;29.85;16.74
36598;BME280;22607;49.550;11.940;2022-07-17T12:21:33;97683.41;;;30.06;16.43
36598;BME280;22607;49.550;11.940;2022-07-17T12:27:19;97689.50;;;29.77;16.87
36598;BME280;22607;49.550;11.940;2022-07-17T12:30:06;97688.56;;;30.02;16.02
36598;BME280;22607;49.550;11.940;2022-07-17T12:32:54;97688.47;;;29.62;16.83
36598;BME280;22607;49.550;11.940;2022-07-17T12:35:41;97682.41;;;29.91;17.38
36598;BME280;22607;49.550;11.940;2022-07-17T12:38:28;97676.50;;;29.79;16.24
36598;BME280;22607;49.550;11.940;2022-07-17T12:41:15;97678.69;;;30.27;16.39
36598;BME280;22607;49.550;11.940;2022-07-17T12:44:02;97669.75;;;30.32;16.44
36598;BME280;22607;49.550;11.940;2022-07-17T12:46:50;97665.56;;;29.99;16.13
36598;BME280;22607;49.550;11.940;2022-07-17T12:49:37;97671.13;;;30.29;16.75
36598;BME280;22607;49.550;11.940;2022-07-17T12:52:27;97666.66;;;29.98;14.96
36598;BME280;22607;49.550;11.940;2022-07-17T12:55:16;97670.09;;;30.09;13.90
36598;BME280;22607;49.550;11.940;2022-07-17T12:58:04;97666.13;;;30.42;15.07
36598;BME280;22607;49.550;11.940;2022-07-17T13:00:51;97660.03;;;30.60;15.12
36598;BME280;22607;49.550;11.940;2022-07-17T13:03:39;97665.53;;;30.05;15.43
36598;BME280;22607;49.550;11.940;2022-07-17T13:06:26;97659.91;;;29.96;15.63
36598;BME280;22607;49.550;11.940;2022-07-17T13:09:13;97663.66;;;30.00;15.74
36598;BME280;22607;49.550;11.940;2022-07-17T13:12:02;97662.00;;;30.04;15.59
36598;BME280;22607;49.550;11.940;2022-07-17T13:14:49;97664.56;;;30.35;16.02
36598;BME280;22607;49.550;11.940;2022-07-17T13:17:37;97655.44;;;30.21;16.01
36598;BME280;22607;49.550;11.940;2022-07-17T13:20:25;97651.69;;;30.17;15.26
36598;BME280;22607;49.550;11.940;2022-07-17T13:23:13;97652.66;;;30.31;15.86
36598;BME280;22607;49.550;11.940;2022-07-17T13:26:00;97662.44;;;30.27;15.70
36598;BME280;22607;49.550;11.940;2022-07-17T13:28:48;97653.44;;;29.92;15.58
36598;BME280;22607;49.550;11.940;2022-07-17T13:31:36;97659.28;;;30.15;15.74
36598;BME280;22607;49.550;11.940;2022-07-17T13:34:23;97660.41;;;30.03;15.78
36598;BME280;22607;49.550;11.940;2022-07-17T13:37:10;97657.66;;;30.13;15.74
36598;BME280;22607;49.550;11.940;2022-07-17T13:39:57;97649.25;;;30.15;15.11
36598;BME280;22607;49.550;11.940;2022-07-17T13:42:45;97642.00;;;30.05;15.52
36598;BME280;22607;49.550;11.940;2022-07-17T13:45:32;97641.97;;;30.10;14.78
36598;BME280;22607;49.550;11.940;2022-07-17T13:48:21;97638.09;;;30.22;14.92
36598;BME280;22607;49.550;11.940;2022-07-17T13:51:08;97641.66;;;30.17;15.21
36598;BME280;22607;49.550;11.940;2022-07-17T13:53:58;97639.44;;;29.74;15.17
36598;BME280;22607;49.550;11.940;2022-07-17T13:56:45;97640.34;;;29.54;15.57
36598;BME280;22607;49.550;11.940;2022-07-17T13:59:32;97635.03;;;29.89;15.56
36598;BME280;22607;49.550;11.940;2022-07-17T14:02:19;97637.59;;;30.20;15.39
36598;BME280;22607;49.550;11.940;2022-07-17T14:05:07;97636.00;;;30.13;15.34
36598;BME280;22607;49.550;11.940;2022-07-17T14:07:54;97634.19;;;29.98;16.15
36598;BME280;22607;49.550;11.940;2022-07-17T14:10:41;97638.34;;;30.25;15.55
36598;BME280;22607;49.550;11.940;2022-07-17T14:13:29;97635.00;;;29.94;15.60
36598;BME280;22607;49.550;11.940;2022-07-17T14:16:19;97623.69;;;30.32;15.74
36598;BME280;22607;49.550;11.940;2022-07-17T14:19:06;97629.63;;;30.34;15.95
36598;BME280;22607;49.550;11.940;2022-07-17T14:21:53;97624.59;;;30.51;15.39
36598;BME280;22607;49.550;11.940;2022-07-17T14:24:40;97615.25;;;30.38;15.83
36598;BME280;22607;49.550;11.940;2022-07-17T14:27:27;97619.38;;;30.31;15.11
36598;BME280;22607;49.550;11.940;2022-07-17T14:30:14;97621.09;;;30.11;15.57
36598;BME280;22607;49.550;11.940;2022-07-17T14:33:02;97615.38;;;30.52;14.72
36598;BME280;22607;49.550;11.940;2022-07-17T14:35:49;97615.41;;;30.12;14.54
36598;BME280;22607;49.550;11.940;2022-07-17T14:38:37;97618.78;;;29.89;14.03
36598;BME280;22607;49.550;11.940;2022-07-17T14:41:24;97598.03;;;30.24;14.74
36598;BME280;22607;49.550;11.940;2022-07-17T14:44:13;97604.78;;;30.26;14.28
36598;BME280;22607;49.550;11.940;2022-07-17T14:47:02;97601.94;;;30.02;13.88